sensor_id;sensor_type;location;lat;lon;timestamp;pressure;altitude;pressure_sealevel;temperature;humidity
20160;BME280;50187;50.492;12.134;2023-03-20T00:00:37;97647.19;;;19.89;33.32
20160;BME280;50187;50.492;12.134;2023-03-20T00:03:23;97645.13;;;19.83;33.20
20160;BME280;50187;50.492;12.134;2023-03-20T00:06:15;97655.91;;;19.83;33.11
20160;BME280;50187;50.492;12.134;2023-03-20T00:09:03;97650.69;;;19.81;33.20
20160;BME280;50187;50.492;12.134;2023-03-20T00:11:52;97656.09;;;19.89;33.28
20160;BME280;50187;50.492;12.134;2023-03-20T00:14:39;97687.13;;;19.85;33.07
20160;BME280;50187;50.492;12.134;2023-03-20T00:17:25;97662.22;;;19.92;33.15
20160;BME280;50187;50.492;12.134;2023-03-20T00:20:16;97653.22;;;19.83;33.11
20160;BME280;50187;50.492;12.134;2023-03-20T00:23:02;97656.28;;;19.88;33.07
20160;BME280;50187;50.492;12.134;2023-03-20T00:25:48;97641.41;;;19.84;33.00
20160;BME280;50187;50.492;12.134;2023-03-20T00:28:44;97641.41;;;19.84;33.08
20160;BME280;50187;50.492;12.134;2023-03-20T00:31:35;97645.13;;;19.83;33.10
20160;BME280;50187;50.492;12.134;2023-03-20T00:34:22;97645.53;;;19.78;33.10
20160;BME280;50187;50.492;12.134;2023-03-20T00:37:09;97638.47;;;19.77;33.34
20160;BME280;50187;50.492;12.134;2023-03-20T00:39:58;97648.00;;;19.81;33.17
20160;BME280;50187;50.492;12.134;2023-03-20T00:42:46;97632.22;;;19.77;33.26
20160;BME280;50187;50.492;12.134;2023-03-20T00:45:34;97633.91;;;19.78;33.26
20160;BME280;50187;50.492;12.134;2023-03-20T00:48:19;97658.47;;;19.66;33.17
20160;BME280;50187;50.492;12.134;2023-03-20T00:51:06;97638.19;;;19.80;33.24
20160;BME280;50187;50.492;12.134;2023-03-20T00:53:52;97640.88;;;19.80;33.17
20160;BME280;50187;50.492;12.134;2023-03-20T00:57:01;97629.09;;;19.81;33.31
20160;BME280;50187;50.492;12.134;2023-03-20T00:59:57;97628.22;;;19.81;33.02
20160;BME280;50187;50.492;12.134;2023-03-20T01:02:43;97634.06;;;19.76;33.35
20160;BME280;50187;50.492;12.134;2023-03-20T01:05:29;97620.41;;;19.78;33.21
20160;BME280;50187;50.492;12.134;2023-03-20T01:08:18;97626.22;;;19.83;33.09
20160;BME280;50187;50.492;12.134;2023-03-20T01:11:03;97623.53;;;19.83;33.45
20160;BME280;50187;50.492;12.134;2023-03-20T01:13:49;97642.25;;;19.84;33.27
20160;BME280;50187;50.492;12.134;2023-03-20T01:16:36;97629.22;;;19.80;33.09
20160;BME280;50187;50.492;12.134;2023-03-20T01:19:22;97635.16;;;19.83;33.09
20160;BME280;50187;50.492;12.134;2023-03-20T01:22:07;97636.31;;;19.81;33.05
20160;BME280;50187;50.492;12.134;2023-03-20T01:24:52;97625.16;;;19.76;33.23
20160;BME280;50187;50.492;12.134;2023-03-20T01:27:38;97625.28;;;19.74;33.28
20160;BME280;50187;50.492;12.134;2023-03-20T01:30:29;97632.91;;;19.79;33.33
20160;BME280;50187;50.492;12.134;2023-03-20T01:33:17;97633.78;;;19.79;33.25
20160;BME280;50187;50.492;12.134;2023-03-20T01:36:10;97668.72;;;19.81;33.36
20160;BME280;50187;50.492;12.134;2023-03-20T01:38:57;97636.00;;;19.84;33.17
20160;BME280;50187;50.492;12.134;2023-03-20T01:41:43;97633.78;;;19.79;33.31
20160;BME280;50187;50.492;12.134;2023-03-20T01:44:31;97632.78;;;19.80;33.35
20160;BME280;50187;50.492;12.134;2023-03-20T01:47:20;97643.72;;;19.79;33.07
20160;BME280;50187;50.492;12.134;2023-03-20T01:50:31;97634.75;;;19.78;33.46
20160;BME280;50187;50.492;12.134;2023-03-20T01:53:27;97648.06;;;19.71;33.45
20160;BME280;50187;50.492;12.134;2023-03-20T01:56:17;97651.44;;;19.73;33.36
20160;BME280;50187;50.492;12.134;2023-03-20T01:59:14;97642.50;;;19.73;33.39
20160;BME280;50187;50.492;12.134;2023-03-20T02:02:01;97653.97;;;19.75;33.34
20160;BME280;50187;50.492;12.134;2023-03-20T02:04:51;97646.56;;;19.77;33.09
20160;BME280;50187;50.492;12.134;2023-03-20T02:07:38;97648.25;;;19.78;33.16
20160;BME280;50187;50.492;12.134;2023-03-20T02:10:26;97664.44;;;19.78;33.27
20160;BME280;50187;50.492;12.134;2023-03-20T02:13:21;97655.38;;;19.79;33.24
20160;BME280;50187;50.492;12.134;2023-03-20T02:16:13;97656.50;;;19.77;33.31
20160;BME280;50187;50.492;12.134;2023-03-20T02:19:29;97654.44;;;19.70;33.38
20160;BME280;50187;50.492;12.134;2023-03-20T02:28:46;97657.66;;;19.74;33.16
20160;BME280;50187;50.492;12.134;2023-03-20T02:31:55;97649.72;;;19.72;33.49
20160;BME280;50187;50.492;12.134;2023-03-20T02:38:03;97651.44;;;19.73;33.40
20160;BME280;50187;50.492;12.134;2023-03-20T02:41:13;97653.44;;;19.71;33.43
20160;BME280;50187;50.492;12.134;2023-03-20T02:47:10;97643.09;;;19.67;33.42
20160;BME280;50187;50.492;12.134;2023-03-20T02:53:02;97649.53;;;19.66;33.37
20160;BME280;50187;50.492;12.134;2023-03-20T02:56:05;97659.00;;;19.70;33.22
20160;BME280;50187;50.492;12.134;2023-03-20T03:02:21;97652.06;;;19.67;33.38
20160;BME280;50187;50.492;12.134;2023-03-20T03:05:18;97657.31;;;19.69;33.38
20160;BME280;50187;50.492;12.134;2023-03-20T03:08:05;97663.03;;;19.66;33.37
20160;BME280;50187;50.492;12.134;2023-03-20T03:11:00;97669.94;;;19.68;33.37
20160;BME280;50187;50.492;12.134;2023-03-20T03:13:50;97664.69;;;19.67;33.35
20160;BME280;50187;50.492;12.134;2023-03-20T03:16:39;97669.41;;;19.65;33.21
20160;BME280;50187;50.492;12.134;2023-03-20T03:19:26;97664.53;;;19.68;33.28
20160;BME280;50187;50.492;12.134;2023-03-20T03:22:15;97659.00;;;19.70;33.28
20160;BME280;50187;50.492;12.134;2023-03-20T03:25:00;97657.81;;;19.72;33.26
20160;BME280;50187;50.492;12.134;2023-03-20T03:27:48;97657.66;;;19.74;33.25
20160;BME280;50187;50.492;12.134;2023-03-20T03:30:41;97675.72;;;19.55;33.30
20160;BME280;50187;50.492;12.134;2023-03-20T03:33:29;97657.97;;;19.71;33.20
20160;BME280;50187;50.492;12.134;2023-03-20T03:39:22;97643.97;;;19.67;33.07
20160;BME280;50187;50.492;12.134;2023-03-20T03:42:19;97652.25;;;19.74;33.24
20160;BME280;50187;50.492;12.134;2023-03-20T03:45:15;97652.97;;;19.76;33.11
20160;BME280;50187;50.492;12.134;2023-03-20T03:48:11;97655.66;;;19.76;33.27
20160;BME280;50187;50.492;12.134;2023-03-20T03:51:04;97657.66;;;19.74;33.11
20160;BME280;50187;50.492;12.134;2023-03-20T03:54:03;97656.16;;;19.71;33.21
20160;BME280;50187;50.492;12.134;2023-03-20T03:56:50;97658.69;;;19.73;33.21
20160;BME280;50187;50.492;12.134;2023-03-20T03:59:39;97646.84;;;19.66;33.05
20160;BME280;50187;50.492;12.134;2023-03-20T04:02:28;97655.13;;;19.72;33.13
20160;BME280;50187;50.492;12.134;2023-03-20T04:05:15;97657.81;;;19.72;33.13
20160;BME280;50187;50.492;12.134;2023-03-20T04:08:04;97645.50;;;19.70;33.09
20160;BME280;50187;50.492;12.134;2023-03-20T04:10:50;97654.44;;;19.70;33.12
20160;BME280;50187;50.492;12.134;2023-03-20T04:13:36;97657.31;;;19.69;33.17
20160;BME280;50187;50.492;12.134;2023-03-20T04:16:23;97661.00;;;19.68;33.07
20160;BME280;50187;50.492;12.134;2023-03-20T04:19:08;97647.66;;;19.66;33.07
20160;BME280;50187;50.492;12.134;2023-03-20T04:21:54;97643.59;;;19.62;33.14
20160;BME280;50187;50.492;12.134;2023-03-20T04:24:39;97667.78;;;19.72;33.07
20160;BME280;50187;50.492;12.134;2023-03-20T04:27:25;97673.03;;;19.73;33.12
20160;BME280;50187;50.492;12.134;2023-03-20T04:30:11;97663.22;;;19.72;33.14
20160;BME280;50187;50.492;12.134;2023-03-20T04:33:16;97662.88;;;19.67;33.11
20160;BME280;50187;50.492;12.134;2023-03-20T04:36:12;97659.63;;;19.64;33.28
20160;BME280;50187;50.492;12.134;2023-03-20T04:38:58;97678.19;;;19.67;33.29
20160;BME280;50187;50.492;12.134;2023-03-20T04:41:44;97667.88;;;19.62;33.14
20160;BME280;50187;50.492;12.134;2023-03-20T04:44:30;97674.16;;;19.71;33.20
20160;BME280;50187;50.492;12.134;2023-03-20T04:47:16;97677.19;;;19.68;33.20
20160;BME280;50187;50.492;12.134;2023-03-20T04:50:01;97684.66;;;19.74;33.11
20160;BME280;50187;50.492;12.134;2023-03-20T04:52:48;97678.19;;;19.67;33.18
20160;BME280;50187;50.492;12.134;2023-03-20T04:55:33;97684.28;;;19.69;33.23
20160;BME280;50187;50.492;12.134;2023-03-20T04:58:19;97685.28;;;19.68;33.14
20160;BME280;50187;50.492;12.134;2023-03-20T05:01:04;97676.44;;;19.58;33.33
20160;BME280;50187;50.492;12.134;2023-03-20T05:03:50;97702.53;;;19.75;33.22
20160;BME280;50187;50.492;12.134;2023-03-20T05:06:35;97704.66;;;19.81;33.02
20160;BME280;50187;50.492;12.134;2023-03-20T05:09:21;97728.63;;;19.84;33.03
20160;BME280;50187;50.492;12.134;2023-03-20T05:12:11;97700.09;;;19.82;32.96
20160;BME280;50187;50.492;12.134;2023-03-20T05:15:19;97692.22;;;19.88;33.01
20160;BME280;50187;50.492;12.134;2023-03-20T05:18:23;97685.81;;;19.89;33.03
20160;BME280;50187;50.492;12.134;2023-03-20T05:21:22;97691.97;;;20.00;32.99
20160;BME280;50187;50.492;12.134;2023-03-20T05:24:23;97692.16;;;20.06;32.71
20160;BME280;50187;50.492;12.134;2023-03-20T05:27:43;97701.81;;;20.09;32.71
20160;BME280;50187;50.492;12.134;2023-03-20T05:30:49;97708.38;;;20.06;32.75
20160;BME280;50187;50.492;12.134;2023-03-20T05:33:48;97702.13;;;20.06;32.74
20160;BME280;50187;50.492;12.134;2023-03-20T05:36:41;97711.28;;;20.13;32.70
20160;BME280;50187;50.492;12.134;2023-03-20T05:39:45;97702.56;;;20.19;32.52
20160;BME280;50187;50.492;12.134;2023-03-20T05:42:58;97688.69;;;20.14;32.67
20160;BME280;50187;50.492;12.134;2023-03-20T05:45:42;97693.91;;;20.16;32.46
20160;BME280;50187;50.492;12.134;2023-03-20T05:48:53;97690.00;;;20.10;32.65
20160;BME280;50187;50.492;12.134;2023-03-20T05:52:14;97706.88;;;20.12;32.67
20160;BME280;50187;50.492;12.134;2023-03-20T05:55:09;97718.91;;;20.18;32.54
20160;BME280;50187;50.492;12.134;2023-03-20T05:58:08;97718.44;;;20.22;32.58
20160;BME280;50187;50.492;12.134;2023-03-20T06:01:09;97720.97;;;20.24;32.59
20160;BME280;50187;50.492;12.134;2023-03-20T06:04:14;97731.63;;;20.25;32.53
20160;BME280;50187;50.492;12.134;2023-03-20T06:07:20;97710.66;;;20.19;32.57
20160;BME280;50187;50.492;12.134;2023-03-20T06:10:14;97718.28;;;20.24;32.48
20160;BME280;50187;50.492;12.134;2023-03-20T06:13:00;97716.56;;;20.23;32.72
20160;BME280;50187;50.492;12.134;2023-03-20T06:15:48;97715.03;;;20.20;32.50
20160;BME280;50187;50.492;12.134;2023-03-20T06:18:35;97734.09;;;20.19;32.46
20160;BME280;50187;50.492;12.134;2023-03-20T06:21:21;97710.44;;;20.13;32.56
20160;BME280;50187;50.492;12.134;2023-03-20T06:24:06;97720.94;;;20.16;32.69
20160;BME280;50187;50.492;12.134;2023-03-20T06:26:51;97724.47;;;20.16;32.49
20160;BME280;50187;50.492;12.134;2023-03-20T06:29:37;97726.16;;;20.17;32.70
20160;BME280;50187;50.492;12.134;2023-03-20T06:32:32;97734.75;;;20.13;32.65
20160;BME280;50187;50.492;12.134;2023-03-20T06:35:20;97724.72;;;20.05;32.69
20160;BME280;50187;50.492;12.134;2023-03-20T06:38:08;97734.28;;;20.17;32.64
20160;BME280;50187;50.492;12.134;2023-03-20T06:40:53;97730.91;;;20.15;32.69
20160;BME280;50187;50.492;12.134;2023-03-20T06:43:40;97734.28;;;20.17;32.77
20160;BME280;50187;50.492;12.134;2023-03-20T06:46:28;97744.22;;;20.17;32.83
20160;BME280;50187;50.492;12.134;2023-03-20T06:49:13;97726.97;;;20.10;32.67
20160;BME280;50187;50.492;12.134;2023-03-20T06:51:59;97729.03;;;20.16;32.58
20160;BME280;50187;50.492;12.134;2023-03-20T06:54:45;97735.97;;;20.18;32.79
20160;BME280;50187;50.492;12.134;2023-03-20T06:57:30;97725.16;;;20.18;32.63
20160;BME280;50187;50.492;12.134;2023-03-20T07:00:15;97732.41;;;20.18;32.66
20160;BME280;50187;50.492;12.134;2023-03-20T07:03:00;97720.09;;;20.15;32.75
20160;BME280;50187;50.492;12.134;2023-03-20T07:05:46;97724.63;;;20.15;32.74
20160;BME280;50187;50.492;12.134;2023-03-20T07:08:33;97724.47;;;20.16;32.73
20160;BME280;50187;50.492;12.134;2023-03-20T07:11:19;97721.94;;;20.15;32.61
20160;BME280;50187;50.492;12.134;2023-03-20T07:14:06;97722.94;;;20.14;32.60
20160;BME280;50187;50.492;12.134;2023-03-20T07:17:07;97737.69;;;20.19;32.63
20160;BME280;50187;50.492;12.134;2023-03-20T07:19:53;97730.19;;;20.13;32.62
20160;BME280;50187;50.492;12.134;2023-03-20T07:22:39;97735.66;;;20.21;32.62
20160;BME280;50187;50.492;12.134;2023-03-20T07:25:39;97734.28;;;20.17;32.59
20160;BME280;50187;50.492;12.134;2023-03-20T07:28:32;97722.94;;;20.14;32.68
20160;BME280;50187;50.492;12.134;2023-03-20T07:31:37;97730.03;;;20.15;32.81
20160;BME280;50187;50.492;12.134;2023-03-20T07:34:30;97733.44;;;20.17;32.66
20160;BME280;50187;50.492;12.134;2023-03-20T07:37:17;97723.78;;;20.14;32.76
20160;BME280;50187;50.492;12.134;2023-03-20T07:40:14;97735.97;;;20.18;32.68
20160;BME280;50187;50.492;12.134;2023-03-20T07:43:09;97736.81;;;20.19;32.67
20160;BME280;50187;50.492;12.134;2023-03-20T07:46:20;97739.34;;;20.20;32.75
20160;BME280;50187;50.492;12.134;2023-03-20T07:49:06;97750.84;;;20.22;32.76
20160;BME280;50187;50.492;12.134;2023-03-20T07:51:51;97739.84;;;20.16;32.64
20160;BME280;50187;50.492;12.134;2023-03-20T07:54:40;97735.91;;;20.10;32.84
20160;BME280;50187;50.492;12.134;2023-03-20T07:57:25;97748.78;;;20.16;32.78
20160;BME280;50187;50.492;12.134;2023-03-20T08:00:11;97735.25;;;20.16;32.93
20160;BME280;50187;50.492;12.134;2023-03-20T08:02:56;97749.53;;;20.27;32.66
20160;BME280;50187;50.492;12.134;2023-03-20T08:05:42;97753.56;;;20.22;32.70
20160;BME280;50187;50.492;12.134;2023-03-20T08:08:31;97746.13;;;20.24;32.74
20160;BME280;50187;50.492;12.134;2023-03-20T08:11:17;97742.59;;;20.24;32.63
20160;BME280;50187;50.492;12.134;2023-03-20T08:14:02;97763.50;;;20.22;32.97
20160;BME280;50187;50.492;12.134;2023-03-20T08:16:47;97757.91;;;20.15;32.88
20160;BME280;50187;50.492;12.134;2023-03-20T08:19:46;97767.50;;;20.18;32.85
20160;BME280;50187;50.492;12.134;2023-03-20T08:22:31;97742.69;;;20.14;32.95
20160;BME280;50187;50.492;12.134;2023-03-20T08:25:16;97760.66;;;20.23;32.92
20160;BME280;50187;50.492;12.134;2023-03-20T08:28:02;97749.69;;;20.25;32.85
20160;BME280;50187;50.492;12.134;2023-03-20T08:30:47;97744.75;;;20.20;32.93
20160;BME280;50187;50.492;12.134;2023-03-20T08:33:33;97752.06;;;20.28;32.59
20160;BME280;50187;50.492;12.134;2023-03-20T08:36:18;97750.00;;;20.22;32.89
20160;BME280;50187;50.492;12.134;2023-03-20T08:39:05;97757.56;;;20.18;32.95
20160;BME280;50187;50.492;12.134;2023-03-20T08:41:50;97757.56;;;20.18;33.07
20160;BME280;50187;50.492;12.134;2023-03-20T08:44:36;97756.03;;;20.16;32.93
20160;BME280;50187;50.492;12.134;2023-03-20T08:47:21;97759.28;;;20.19;32.80
20160;BME280;50187;50.492;12.134;2023-03-20T08:50:07;97751.69;;;20.23;32.61
20160;BME280;50187;50.492;12.134;2023-03-20T08:52:53;97751.97;;;20.12;32.74
20160;BME280;50187;50.492;12.134;2023-03-20T08:55:38;97771.47;;;20.23;32.78
20160;BME280;50187;50.492;12.134;2023-03-20T08:58:23;97762.97;;;20.18;32.87
20160;BME280;50187;50.492;12.134;2023-03-20T09:01:11;97766.53;;;20.19;32.97
20160;BME280;50187;50.492;12.134;2023-03-20T09:04:04;97776.81;;;20.15;32.96
20160;BME280;50187;50.492;12.134;2023-03-20T09:06:49;97760.44;;;20.17;32.86
20160;BME280;50187;50.492;12.134;2023-03-20T09:09:37;97770.38;;;20.16;33.04
20160;BME280;50187;50.492;12.134;2023-03-20T09:12:22;97744.56;;;20.14;32.71
20160;BME280;50187;50.492;12.134;2023-03-20T09:15:09;97776.16;;;20.21;32.92
20160;BME280;50187;50.492;12.134;2023-03-20T09:17:56;97765.31;;;19.95;32.92
20160;BME280;50187;50.492;12.134;2023-03-20T09:20:51;97762.13;;;20.18;32.85
20160;BME280;50187;50.492;12.134;2023-03-20T09:23:37;97765.13;;;20.15;33.03
20160;BME280;50187;50.492;12.134;2023-03-20T09:26:22;97763.47;;;20.14;32.80
20160;BME280;50187;50.492;12.134;2023-03-20T09:29:08;97770.38;;;20.16;33.01
20160;BME280;50187;50.492;12.134;2023-03-20T09:31:54;97763.31;;;20.15;32.94
20160;BME280;50187;50.492;12.134;2023-03-20T09:34:39;97772.09;;;20.17;33.02
20160;BME280;50187;50.492;12.134;2023-03-20T09:37:24;97755.38;;;20.14;32.91
20160;BME280;50187;50.492;12.134;2023-03-20T09:40:50;97762.13;;;20.18;32.85
20160;BME280;50187;50.492;12.134;2023-03-20T09:46:59;97777.66;;;20.16;32.95
20160;BME280;50187;50.492;12.134;2023-03-20T09:50:28;97788.78;;;20.13;32.92
20160;BME280;50187;50.492;12.134;2023-03-20T09:56:03;97782.03;;;20.17;33.02
20160;BME280;50187;50.492;12.134;2023-03-20T09:59:00;97767.38;;;20.19;32.91
20160;BME280;50187;50.492;12.134;2023-03-20T10:01:59;97774.63;;;20.19;33.08
20160;BME280;50187;50.492;12.134;2023-03-20T10:04:53;97762.44;;;20.15;33.00
20160;BME280;50187;50.492;12.134;2023-03-20T10:07:39;97766.00;;;20.15;33.02
20160;BME280;50187;50.492;12.134;2023-03-20T10:10:59;97770.22;;;20.18;32.92
20160;BME280;50187;50.492;12.134;2023-03-20T10:23:34;97798.09;;;20.18;33.12
20160;BME280;50187;50.492;12.134;2023-03-20T10:26:21;97792.69;;;20.18;33.06
20160;BME280;50187;50.492;12.134;2023-03-20T10:29:18;97787.53;;;20.07;32.89
20160;BME280;50187;50.492;12.134;2023-03-20T10:35:42;97793.63;;;20.09;33.15
20160;BME280;50187;50.492;12.134;2023-03-20T10:38:40;97789.69;;;20.03;33.28
20160;BME280;50187;50.492;12.134;2023-03-20T10:41:36;97788.53;;;20.06;33.26
20160;BME280;50187;50.492;12.134;2023-03-20T10:44:33;97783.97;;;20.06;33.06
20160;BME280;50187;50.492;12.134;2023-03-20T10:47:22;97790.31;;;20.15;33.19
20160;BME280;50187;50.492;12.134;2023-03-20T10:50:23;97786.91;;;20.13;33.00
20160;BME280;50187;50.492;12.134;2023-03-20T10:53:24;97795.88;;;20.14;33.22
20160;BME280;50187;50.492;12.134;2023-03-20T10:56:38;97788.78;;;20.13;33.24
20160;BME280;50187;50.492;12.134;2023-03-20T10:59:41;97794.66;;;20.08;33.22
20160;BME280;50187;50.492;12.134;2023-03-20T11:02:29;97779.91;;;20.02;33.33
20160;BME280;50187;50.492;12.134;2023-03-20T11:05:21;97775.59;;;20.10;33.13
20160;BME280;50187;50.492;12.134;2023-03-20T11:08:14;97768.31;;;20.10;33.00
20160;BME280;50187;50.492;12.134;2023-03-20T11:11:02;97772.41;;;20.14;33.09
20160;BME280;50187;50.492;12.134;2023-03-20T11:13:47;97753.97;;;20.10;33.05
20160;BME280;50187;50.492;12.134;2023-03-20T11:16:33;97751.31;;;20.18;33.21
20160;BME280;50187;50.492;12.134;2023-03-20T11:19:22;97756.19;;;20.14;33.10
20160;BME280;50187;50.492;12.134;2023-03-20T11:22:22;97753.66;;;20.13;33.09
20160;BME280;50187;50.492;12.134;2023-03-20T11:25:23;97751.13;;;20.11;33.34
20160;BME280;50187;50.492;12.134;2023-03-20T11:36:58;97752.19;;;20.18;33.27
20160;BME280;50187;50.492;12.134;2023-03-20T11:39:59;97755.56;;;20.20;33.16
20160;BME280;50187;50.492;12.134;2023-03-20T11:45:53;97774.72;;;20.09;33.26
20160;BME280;50187;50.492;12.134;2023-03-20T11:48:41;97760.75;;;20.14;33.20
20160;BME280;50187;50.492;12.134;2023-03-20T11:51:28;97768.69;;;20.15;33.15
20160;BME280;50187;50.492;12.134;2023-03-20T11:54:20;97736.06;;;20.08;33.50
20160;BME280;50187;50.492;12.134;2023-03-20T11:57:28;97755.63;;;20.29;33.37
20160;BME280;50187;50.492;12.134;2023-03-20T12:00:19;97731.41;;;20.19;33.27
20160;BME280;50187;50.492;12.134;2023-03-20T12:03:45;97748.06;;;20.32;33.14
20160;BME280;50187;50.492;12.134;2023-03-20T12:06:58;97746.13;;;20.24;33.28
20160;BME280;50187;50.492;12.134;2023-03-20T12:12:55;97736.97;;;20.17;33.44
20160;BME280;50187;50.492;12.134;2023-03-20T12:15:46;97757.56;;;20.18;33.39
20160;BME280;50187;50.492;12.134;2023-03-20T12:18:37;97734.59;;;20.14;33.43
20160;BME280;50187;50.492;12.134;2023-03-20T12:21:41;97760.94;;;20.20;33.28
20160;BME280;50187;50.492;12.134;2023-03-20T12:24:37;97737.69;;;20.19;33.28
20160;BME280;50187;50.492;12.134;2023-03-20T12:27:45;97726.16;;;20.17;33.42
20160;BME280;50187;50.492;12.134;2023-03-20T12:33:42;97757.91;;;20.15;33.22
20160;BME280;50187;50.492;12.134;2023-03-20T12:36:34;97725.09;;;20.10;33.25
20160;BME280;50187;50.492;12.134;2023-03-20T12:39:23;97749.09;;;20.13;33.38
20160;BME280;50187;50.492;12.134;2023-03-20T12:42:41;97750.78;;;20.14;33.47
20160;BME280;50187;50.492;12.134;2023-03-20T12:45:38;97735.44;;;20.15;33.30
20160;BME280;50187;50.492;12.134;2023-03-20T12:48:36;97732.28;;;20.19;33.18
20160;BME280;50187;50.492;12.134;2023-03-20T12:57:51;97723.78;;;20.14;33.29
20160;BME280;50187;50.492;12.134;2023-03-20T13:10:19;97703.19;;;20.13;33.33
20160;BME280;50187;50.492;12.134;2023-03-20T13:19:20;97694.41;;;20.11;33.52
20160;BME280;50187;50.492;12.134;2023-03-20T13:22:24;97697.56;;;20.06;33.46
20160;BME280;50187;50.492;12.134;2023-03-20T13:28:17;97721.59;;;20.18;33.34
20160;BME280;50187;50.492;12.134;2023-03-20T13:31:23;97722.78;;;20.15;33.26
20160;BME280;50187;50.492;12.134;2023-03-20T13:37:24;97702.34;;;20.13;33.27
20160;BME280;50187;50.492;12.134;2023-03-20T13:40:19;97704.50;;;20.09;33.36
20160;BME280;50187;50.492;12.134;2023-03-20T13:43:22;97700.13;;;20.08;33.43
20160;BME280;50187;50.492;12.134;2023-03-20T13:46:21;97691.00;;;20.09;33.48
20160;BME280;50187;50.492;12.134;2023-03-20T13:52:41;97693.38;;;20.12;33.57
20160;BME280;50187;50.492;12.134;2023-03-20T13:55:39;97668.03;;;20.05;33.26
20160;BME280;50187;50.492;12.134;2023-03-20T14:02:18;97662.00;;;20.11;33.54
20160;BME280;50187;50.492;12.134;2023-03-20T14:05:15;97669.56;;;20.07;33.58
20160;BME280;50187;50.492;12.134;2023-03-20T14:14:14;97665.88;;;20.08;33.44
20160;BME280;50187;50.492;12.134;2023-03-20T14:20:10;97664.53;;;20.13;33.39
20160;BME280;50187;50.492;12.134;2023-03-20T14:22:56;97654.53;;;20.05;33.39
20160;BME280;50187;50.492;12.134;2023-03-20T14:25:42;97651.19;;;20.11;33.57
20160;BME280;50187;50.492;12.134;2023-03-20T14:28:28;97663.00;;;20.10;33.50
20160;BME280;50187;50.492;12.134;2023-03-20T14:31:29;97658.09;;;20.05;33.37
20160;BME280;50187;50.492;12.134;2023-03-20T14:34:20;97668.19;;;20.03;33.61
20160;BME280;50187;50.492;12.134;2023-03-20T14:37:27;97669.72;;;20.06;33.58
20160;BME280;50187;50.492;12.134;2023-03-20T14:40:18;97650.97;;;20.04;33.61
20160;BME280;50187;50.492;12.134;2023-03-20T14:43:16;97646.91;;;20.00;33.65
20160;BME280;50187;50.492;12.134;2023-03-20T14:46:14;97649.66;;;20.08;33.43
20160;BME280;50187;50.492;12.134;2023-03-20T14:49:25;97651.66;;;20.06;33.50
20160;BME280;50187;50.492;12.134;2023-03-20T14:55:28;97650.16;;;20.04;33.67
20160;BME280;50187;50.492;12.134;2023-03-20T14:58:40;97642.22;;;20.02;33.64
20160;BME280;50187;50.492;12.134;2023-03-20T15:04:28;97644.41;;;20.07;33.60
20160;BME280;50187;50.492;12.134;2023-03-20T15:07:28;97648.44;;;20.03;33.53
20160;BME280;50187;50.492;12.134;2023-03-20T15:10:14;97645.75;;;20.03;33.40
20160;BME280;50187;50.492;12.134;2023-03-20T15:13:06;97640.50;;;20.01;33.67
20160;BME280;50187;50.492;12.134;2023-03-20T15:16:04;97631.41;;;20.02;33.53
20160;BME280;50187;50.492;12.134;2023-03-20T15:18:51;97637.59;;;19.95;33.39
20160;BME280;50187;50.492;12.134;2023-03-20T15:21:38;97629.72;;;20.01;33.68
20160;BME280;50187;50.492;12.134;2023-03-20T15:24:27;97639.81;;;19.99;33.60
20160;BME280;50187;50.492;12.134;2023-03-20T15:27:19;97618.31;;;19.89;33.62
20160;BME280;50187;50.492;12.134;2023-03-20T15:30:06;97626.78;;;19.95;33.62
20160;BME280;50187;50.492;12.134;2023-03-20T15:32:53;97620.56;;;19.94;33.64
20160;BME280;50187;50.492;12.134;2023-03-20T15:35:39;97633.03;;;19.95;33.58
20160;BME280;50187;50.492;12.134;2023-03-20T15:38:28;97625.97;;;19.94;33.48
20160;BME280;50187;50.492;12.134;2023-03-20T15:41:30;97615.16;;;19.94;33.67
20160;BME280;50187;50.492;12.134;2023-03-20T15:44:18;97629.97;;;19.90;33.62
20160;BME280;50187;50.492;12.134;2023-03-20T15:47:18;97615.00;;;19.96;33.68
20160;BME280;50187;50.492;12.134;2023-03-20T15:50:12;97626.41;;;19.89;33.71
20160;BME280;50187;50.492;12.134;2023-03-20T15:52:57;97623.41;;;19.93;33.57
20160;BME280;50187;50.492;12.134;2023-03-20T15:55:52;97628.50;;;19.96;33.68
20160;BME280;50187;50.492;12.134;2023-03-20T15:58:55;97633.69;;;19.89;33.66
20160;BME280;50187;50.492;12.134;2023-03-20T16:01:43;97634.50;;;19.89;33.59
20160;BME280;50187;50.492;12.134;2023-03-20T16:04:29;97627.44;;;19.88;33.59
20160;BME280;50187;50.492;12.134;2023-03-20T16:07:29;97646.19;;;19.90;33.64
20160;BME280;50187;50.492;12.134;2023-03-20T16:10:30;97630.81;;;19.90;33.60
20160;BME280;50187;50.492;12.134;2023-03-20T16:13:18;97651.56;;;19.90;33.75
20160;BME280;50187;50.492;12.134;2023-03-20T16:16:05;97635.88;;;19.94;33.53
20160;BME280;50187;50.492;12.134;2023-03-20T16:18:51;97633.84;;;19.87;33.60
20160;BME280;50187;50.492;12.134;2023-03-20T16:21:39;97672.16;;;19.91;33.74
20160;BME280;50187;50.492;12.134;2023-03-20T16:24:34;97646.78;;;19.84;33.63
20160;BME280;50187;50.492;12.134;2023-03-20T16:27:39;97638.69;;;19.84;33.68
20160;BME280;50187;50.492;12.134;2023-03-20T16:30:29;97643.31;;;19.92;33.48
20160;BME280;50187;50.492;12.134;2023-03-20T16:33:16;97644.16;;;19.92;33.52
20160;BME280;50187;50.492;12.134;2023-03-20T16:36:03;97638.19;;;19.80;33.58
20160;BME280;50187;50.492;12.134;2023-03-20T16:39:08;97649.38;;;19.94;33.67
20160;BME280;50187;50.492;12.134;2023-03-20T16:42:09;97653.72;;;19.86;33.65
20160;BME280;50187;50.492;12.134;2023-03-20T16:44:56;97657.81;;;19.90;33.45
20160;BME280;50187;50.492;12.134;2023-03-20T16:47:42;97651.75;;;19.88;33.63
20160;BME280;50187;50.492;12.134;2023-03-20T16:50:33;97653.06;;;19.84;33.56